sensor_id;sensor_type;location;lat;lon;timestamp;pressure;altitude;pressure_sealevel;temperature;humidity
57056;BME280;42945;51.718;5.324;2023-04-22T00:05:26;100604.28;;;4.54;100.00
57056;BME280;42945;51.718;5.324;2023-04-22T00:11:14;100684.03;;;5.01;100.00
57056;BME280;42945;51.718;5.324;2023-04-22T00:17:02;100648.50;;;4.90;100.00
57056;BME280;42945;51.718;5.324;2023-04-22T00:22:49;100688.59;;;4.96;100.00
57056;BME280;42945;51.718;5.324;2023-04-22T00:28:38;100662.06;;;5.02;100.00
57056;BME280;42945;51.718;5.324;2023-04-22T00:34:26;100688.25;;;4.81;100.00
57056;BME280;42945;51.718;5.324;2023-04-22T00:40:13;100707.44;;;4.83;100.00
57056;BME280;42945;51.718;5.324;2023-04-22T00:46:02;100610.56;;;4.00;100.00
57056;BME280;42945;51.718;5.324;2023-04-22T00:51:51;100711.84;;;4.83;100.00
57056;BME280;42945;51.718;5.324;2023-04-22T00:57:39;100727.75;;;4.78;100.00
57056;BME280;42945;51.718;5.324;2023-04-22T01:03:28;100905.56;;;6.05;100.00
57056;BME280;42945;51.718;5.324;2023-04-22T01:09:18;100718.50;;;4.68;100.00
57056;BME280;42945;51.718;5.324;2023-04-22T01:15:10;100809.25;;;5.27;100.00
57056;BME280;42945;51.718;5.324;2023-04-22T01:20:59;100675.97;;;4.31;100.00
57056;BME280;42945;51.718;5.324;2023-04-22T01:26:48;100716.91;;;4.64;100.00
57056;BME280;42945;51.718;5.324;2023-04-22T01:32:38;100724.88;;;4.61;100.00
57056;BME280;42945;51.718;5.324;2023-04-22T01:38:26;100687.28;;;4.59;100.00
57056;BME280;42945;51.718;5.324;2023-04-22T01:44:15;100685.69;;;4.54;100.00
57056;BME280;42945;51.718;5.324;2023-04-22T01:50:02;100663.81;;;4.79;100.00
57056;BME280;42945;51.718;5.324;2023-04-22T01:55:51;100939.44;;;5.89;100.00
57056;BME280;42945;51.718;5.324;2023-04-22T02:01:39;100673.16;;;4.86;100.00
57056;BME280;42945;51.718;5.324;2023-04-22T02:07:33;100657.75;;;4.77;100.00
57056;BME280;42945;51.718;5.324;2023-04-22T02:13:22;100550.78;;;4.08;100.00
57056;BME280;42945;51.718;5.324;2023-04-22T02:19:10;100659.72;;;4.70;100.00
57056;BME280;42945;51.718;5.324;2023-04-22T02:24:57;100337.16;;;2.68;100.00
57056;BME280;42945;51.718;5.324;2023-04-22T02:30:45;100731.41;;;4.99;100.00
57056;BME280;42945;51.718;5.324;2023-04-22T02:36:33;100590.53;;;4.23;100.00
57056;BME280;42945;51.718;5.324;2023-04-22T02:42:21;100723.13;;;5.10;100.00
57056;BME280;42945;51.718;5.324;2023-04-22T02:48:09;100639.56;;;5.18;100.00
57056;BME280;42945;51.718;5.324;2023-04-22T02:53:59;100683.97;;;5.26;100.00
57056;BME280;42945;51.718;5.324;2023-04-22T02:59:46;100658.78;;;5.20;100.00
57056;BME280;42945;51.718;5.324;2023-04-22T03:05:34;100693.19;;;5.14;100.00
57056;BME280;42945;51.718;5.324;2023-04-22T03:11:22;100613.88;;;5.03;100.00
57056;BME280;42945;51.718;5.324;2023-04-22T03:17:10;100650.94;;;5.19;100.00
57056;BME280;42945;51.718;5.324;2023-04-22T03:22:57;100656.63;;;5.08;100.00
57056;BME280;42945;51.718;5.324;2023-04-22T03:28:45;100436.84;;;3.67;100.00
57056;BME280;42945;51.718;5.324;2023-04-22T03:34:34;100578.75;;;4.34;100.00
57056;BME280;42945;51.718;5.324;2023-04-22T03:40:21;100615.94;;;4.95;100.00
57056;BME280;42945;51.718;5.324;2023-04-22T03:46:10;100538.94;;;4.45;100.00
57056;BME280;42945;51.718;5.324;2023-04-22T03:51:58;100665.47;;;5.05;100.00
57056;BME280;42945;51.718;5.324;2023-04-22T03:57:45;100500.38;;;4.47;100.00
57056;BME280;42945;51.718;5.324;2023-04-22T04:03:33;100527.63;;;4.67;100.00
57056;BME280;42945;51.718;5.324;2023-04-22T04:09:21;100594.94;;;5.17;100.00
57056;BME280;42945;51.718;5.324;2023-04-22T04:15:10;100576.34;;;5.21;100.00
57056;BME280;42945;51.718;5.324;2023-04-22T04:20:58;100491.25;;;4.58;100.00
57056;BME280;42945;51.718;5.324;2023-04-22T04:26:46;100443.47;;;4.48;100.00
57056;BME280;42945;51.718;5.324;2023-04-22T04:32:35;100636.47;;;5.30;100.00
57056;BME280;42945;51.718;5.324;2023-04-22T04:38:23;100482.19;;;4.65;100.00
57056;BME280;42945;51.718;5.324;2023-04-22T04:44:14;100630.78;;;5.41;100.00
57056;BME280;42945;51.718;5.324;2023-04-22T04:50:03;100615.59;;;5.48;100.00
57056;BME280;42945;51.718;5.324;2023-04-22T04:55:51;104131.44;;;26.42;100.00
57056;BME280;42945;51.718;5.324;2023-04-22T05:01:39;100675.50;;;6.07;100.00
57056;BME280;42945;51.718;5.324;2023-04-22T05:07:27;100599.56;;;5.54;100.00
57056;BME280;42945;51.718;5.324;2023-04-22T05:13:15;100627.72;;;5.52;100.00
57056;BME280;42945;51.718;5.324;2023-04-22T05:19:03;100614.41;;;5.57;100.00
57056;BME280;42945;51.718;5.324;2023-04-22T05:24:51;100619.88;;;5.72;100.00
57056;BME280;42945;51.718;5.324;2023-04-22T05:30:39;100622.31;;;6.40;100.00
57056;BME280;42945;51.718;5.324;2023-04-22T05:36:27;100586.56;;;6.14;100.00
57056;BME280;42945;51.718;5.324;2023-04-22T05:42:15;100586.38;;;6.19;100.00
57056;BME280;42945;51.718;5.324;2023-04-22T05:48:03;100604.56;;;6.25;100.00
57056;BME280;42945;51.718;5.324;2023-04-22T05:58:10;100625.53;;;6.47;100.00
57056;BME280;42945;51.718;5.324;2023-04-22T06:03:57;100476.06;;;5.92;100.00
57056;BME280;42945;51.718;5.324;2023-04-22T06:09:45;100583.72;;;7.34;100.00
57056;BME280;42945;51.718;5.324;2023-04-22T06:15:33;100337.91;;;6.75;100.00
57056;BME280;42945;51.718;5.324;2023-04-22T06:21:23;100590.75;;;8.40;100.00
57056;BME280;42945;51.718;5.324;2023-04-22T06:27:10;100587.28;;;8.73;100.00
57056;BME280;42945;51.718;5.324;2023-04-22T06:32:59;100474.78;;;8.51;100.00
57056;BME280;42945;51.718;5.324;2023-04-22T06:38:46;100535.25;;;9.21;100.00
57056;BME280;42945;51.718;5.324;2023-04-22T06:44:36;100575.81;;;9.68;100.00
57056;BME280;42945;51.718;5.324;2023-04-22T06:50:24;100500.31;;;10.19;100.00
57056;BME280;42945;51.718;5.324;2023-04-22T07:00:14;100382.63;;;9.95;100.00
57056;BME280;42945;51.718;5.324;2023-04-22T07:06:03;100443.78;;;10.62;100.00
57056;BME280;42945;51.718;5.324;2023-04-22T07:11:50;100331.81;;;10.02;100.00
57056;BME280;42945;51.718;5.324;2023-04-22T07:17:38;100324.47;;;10.20;100.00
57056;BME280;42945;51.718;5.324;2023-04-22T07:23:26;100292.19;;;10.68;100.00
57056;BME280;42945;51.718;5.324;2023-04-22T07:29:14;100412.81;;;11.55;100.00
57056;BME280;42945;51.718;5.324;2023-04-22T07:35:02;100417.63;;;11.76;100.00
57056;BME280;42945;51.718;5.324;2023-04-22T07:40:50;100477.13;;;11.73;100.00
57056;BME280;42945;51.718;5.324;2023-04-22T07:46:37;100412.22;;;11.77;100.00
57056;BME280;42945;51.718;5.324;2023-04-22T07:52:26;100432.69;;;11.88;100.00
57056;BME280;42945;51.718;5.324;2023-04-22T08:02:07;100474.09;;;12.68;100.00
57056;BME280;42945;51.718;5.324;2023-04-22T08:07:55;100406.09;;;12.27;100.00
57056;BME280;42945;51.718;5.324;2023-04-22T08:13:43;100357.84;;;12.57;100.00
57056;BME280;42945;51.718;5.324;2023-04-22T08:19:31;100037.53;;;12.71;100.00
57056;BME280;42945;51.718;5.324;2023-04-22T08:25:19;100424.16;;;13.19;100.00
57056;BME280;42945;51.718;5.324;2023-04-22T08:31:07;100383.72;;;13.14;100.00
57056;BME280;42945;51.718;5.324;2023-04-22T08:36:57;100390.03;;;13.25;100.00
57056;BME280;42945;51.718;5.324;2023-04-22T08:42:46;100117.00;;;12.06;100.00
57056;BME280;42945;51.718;5.324;2023-04-22T08:48:36;100340.38;;;13.93;100.00
57056;BME280;42945;51.718;5.324;2023-04-22T08:54:25;100221.56;;;13.56;100.00
57056;BME280;42945;51.718;5.324;2023-04-22T09:03:48;100200.91;;;13.92;100.00
57056;BME280;42945;51.718;5.324;2023-04-22T09:09:38;100372.63;;;15.21;100.00
57056;BME280;42945;51.718;5.324;2023-04-22T09:15:25;100310.28;;;14.13;100.00
57056;BME280;42945;51.718;5.324;2023-04-22T09:21:14;100293.78;;;14.63;100.00
57056;BME280;42945;51.718;5.324;2023-04-22T09:27:01;100249.66;;;14.59;100.00
57056;BME280;42945;51.718;5.324;2023-04-22T09:33:00;100161.16;;;14.22;100.00
57056;BME280;42945;51.718;5.324;2023-04-22T09:38:55;100176.81;;;14.68;100.00
57056;BME280;42945;51.718;5.324;2023-04-22T09:44:47;100146.75;;;14.66;100.00
57056;BME280;42945;51.718;5.324;2023-04-22T09:50:44;100321.75;;;15.22;100.00
57056;BME280;42945;51.718;5.324;2023-04-22T09:56:59;100298.38;;;16.17;100.00
57056;BME280;42945;51.718;5.324;2023-04-22T10:06:35;100168.22;;;15.16;100.00
57056;BME280;42945;51.718;5.324;2023-04-22T10:12:25;100296.72;;;16.35;100.00
57056;BME280;42945;51.718;5.324;2023-04-22T10:18:18;100191.91;;;15.81;100.00
57056;BME280;42945;51.718;5.324;2023-04-22T10:24:14;100159.97;;;15.89;100.00
57056;BME280;42945;51.718;5.324;2023-04-22T10:30:04;100195.44;;;16.11;100.00
57056;BME280;42945;51.718;5.324;2023-04-22T10:48:01;100266.03;;;16.59;100.00
57056;BME280;42945;51.718;5.324;2023-04-22T10:53:50;100314.94;;;16.90;100.00
57056;BME280;42945;51.718;5.324;2023-04-22T10:59:45;100279.38;;;16.20;100.00
57056;BME280;42945;51.718;5.324;2023-04-22T11:09:39;100305.13;;;15.70;100.00
57056;BME280;42945;51.718;5.324;2023-04-22T11:15:29;100311.91;;;15.02;100.00
57056;BME280;42945;51.718;5.324;2023-04-22T11:21:19;100316.66;;;14.98;100.00
57056;BME280;42945;51.718;5.324;2023-04-22T11:27:07;100292.56;;;14.24;100.00
57056;BME280;42945;51.718;5.324;2023-04-22T11:32:58;100340.97;;;13.96;100.00
57056;BME280;42945;51.718;5.324;2023-04-22T11:38:55;100380.59;;;14.01;100.00
57056;BME280;42945;51.718;5.324;2023-04-22T11:44:44;100349.81;;;13.63;100.00
57056;BME280;42945;51.718;5.324;2023-04-22T11:50:35;100055.22;;;13.49;100.00
57056;BME280;42945;51.718;5.324;2023-04-22T11:56:22;100325.16;;;13.26;100.00
57056;BME280;42945;51.718;5.324;2023-04-22T12:02:10;100338.28;;;13.40;100.00
57056;BME280;42945;51.718;5.324;2023-04-22T12:12:02;100362.69;;;13.23;100.00
57056;BME280;42945;51.718;5.324;2023-04-22T12:17:51;100270.19;;;12.31;100.00
57056;BME280;42945;51.718;5.324;2023-04-22T12:23:47;100293.41;;;12.16;100.00
57056;BME280;42945;51.718;5.324;2023-04-22T12:29:35;100391.31;;;13.08;100.00
57056;BME280;42945;51.718;5.324;2023-04-22T12:35:23;100525.44;;;13.66;100.00
57056;BME280;42945;51.718;5.324;2023-04-22T12:41:11;100405.38;;;12.86;100.00
57056;BME280;42945;51.718;5.324;2023-04-22T12:46:59;100369.19;;;12.83;100.00
57056;BME280;42945;51.718;5.324;2023-04-22T12:52:48;100663.09;;;12.53;100.00
57056;BME280;42945;51.718;5.324;2023-04-22T12:58:35;100424.75;;;12.14;100.00
57056;BME280;42945;51.718;5.324;2023-04-22T13:04:24;100368.03;;;12.26;100.00
57056;BME280;42945;51.718;5.324;2023-04-22T13:14:04;100441.31;;;12.67;100.00
57056;BME280;42945;51.718;5.324;2023-04-22T13:19:53;100423.94;;;12.74;100.00
57056;BME280;42945;51.718;5.324;2023-04-22T13:25:40;100451.19;;;13.02;100.00
57056;BME280;42945;51.718;5.324;2023-04-22T13:31:29;100498.25;;;13.02;100.00
57056;BME280;42945;51.718;5.324;2023-04-22T13:37:17;100389.06;;;12.90;100.00
57056;BME280;42945;51.718;5.324;2023-04-22T13:43:08;100425.56;;;13.36;100.00
57056;BME280;42945;51.718;5.324;2023-04-22T13:48:55;100318.84;;;12.45;100.00
57056;BME280;42945;51.718;5.324;2023-04-22T13:54:44;100605.28;;;14.03;100.00
57056;BME280;42945;51.718;5.324;2023-04-22T14:00:33;100242.56;;;11.97;100.00
57056;BME280;42945;51.718;5.324;2023-04-22T14:06:21;100417.31;;;13.04;100.00
57056;BME280;42945;51.718;5.324;2023-04-22T14:16:03;100391.75;;;12.66;100.00
57056;BME280;42945;51.718;5.324;2023-04-22T14:21:56;100382.94;;;13.01;100.00
57056;BME280;42945;51.718;5.324;2023-04-22T14:27:44;100295.66;;;12.47;100.00
57056;BME280;42945;51.718;5.324;2023-04-22T14:33:33;100266.56;;;12.32;100.00
57056;BME280;42945;51.718;5.324;2023-04-22T14:39:21;100481.66;;;13.46;100.00
57056;BME280;42945;51.718;5.324;2023-04-22T14:45:10;100301.47;;;11.91;100.00
57056;BME280;42945;51.718;5.324;2023-04-22T14:50:57;100439.53;;;12.18;100.00
57056;BME280;42945;51.718;5.324;2023-04-22T14:56:46;100425.50;;;11.90;100.00
57056;BME280;42945;51.718;5.324;2023-04-22T15:02:34;100397.31;;;11.88;100.00
57056;BME280;42945;51.718;5.324;2023-04-22T15:08:22;100340.25;;;11.03;100.00
57056;BME280;42945;51.718;5.324;2023-04-22T15:18:07;100640.25;;;12.51;100.00
57056;BME280;42945;51.718;5.324;2023-04-22T15:23:56;100476.69;;;11.54;100.00
57056;BME280;42945;51.718;5.324;2023-04-22T15:29:43;100448.94;;;11.45;100.00
57056;BME280;42945;51.718;5.324;2023-04-22T15:35:32;100483.03;;;11.38;100.00
57056;BME280;42945;51.718;5.324;2023-04-22T15:41:22;100567.00;;;11.67;100.00
57056;BME280;42945;51.718;5.324;2023-04-22T15:47:10;100489.63;;;10.91;100.00
57056;BME280;42945;51.718;5.324;2023-04-22T15:52:58;100467.91;;;10.72;100.00
57056;BME280;42945;51.718;5.324;2023-04-22T15:58:46;100353.56;;;9.79;100.00
57056;BME280;42945;51.718;5.324;2023-04-22T16:04:34;100548.06;;;10.34;100.00
57056;BME280;42945;51.718;5.324;2023-04-22T16:10:23;100401.09;;;9.37;100.00
57056;BME280;42945;51.718;5.324;2023-04-22T16:20:08;100521.03;;;9.98;100.00
57056;BME280;42945;51.718;5.324;2023-04-22T16:25:56;100502.81;;;9.78;100.00
57056;BME280;42945;51.718;5.324;2023-04-22T16:31:45;100421.88;;;8.99;100.00
57056;BME280;42945;51.718;5.324;2023-04-22T16:37:33;100417.00;;;8.91;100.00
57056;BME280;42945;51.718;5.324;2023-04-22T16:43:22;100474.16;;;9.70;100.00
57056;BME280;42945;51.718;5.324;2023-04-22T16:49:10;100452.06;;;9.41;100.00
57056;BME280;42945;51.718;5.324;2023-04-22T16:54:57;100505.91;;;9.56;100.00
57056;BME280;42945;51.718;5.324;2023-04-22T17:00:47;100499.13;;;9.66;100.00
57056;BME280;42945;51.718;5.324;2023-04-22T17:06:35;100473.31;;;9.39;100.00
57056;BME280;42945;51.718;5.324;2023-04-22T17:12:24;100365.00;;;8.76;100.00
57056;BME280;42945;51.718;5.324;2023-04-22T17:22:08;100515.50;;;9.42;100.00
57056;BME280;42945;51.718;5.324;2023-04-22T17:27:56;100626.94;;;10.14;100.00
57056;BME280;42945;51.718;5.324;2023-04-22T17:33:44;100618.72;;;9.42;100.00
57056;BME280;42945;51.718;5.324;2023-04-22T17:39:32;100555.66;;;9.03;100.00
57056;BME280;42945;51.718;5.324;2023-04-22T17:45:19;100559.81;;;8.91;100.00
57056;BME280;42945;51.718;5.324;2023-04-22T17:51:08;100569.22;;;8.81;100.00
57056;BME280;42945;51.718;5.324;2023-04-22T17:56:57;100568.69;;;8.74;100.00
57056;BME280;42945;51.718;5.324;2023-04-22T18:02:45;100646.75;;;8.81;100.00
57056;BME280;42945;51.718;5.324;2023-04-22T18:08:33;100604.78;;;8.75;100.00
57056;BME280;42945;51.718;5.324;2023-04-22T18:14:21;100636.69;;;8.55;100.00
57056;BME280;42945;51.718;5.324;2023-04-22T18:24:04;100606.53;;;8.59;100.00
57056;BME280;42945;51.718;5.324;2023-04-22T18:29:52;100593.38;;;8.41;100.00
57056;BME280;42945;51.718;5.324;2023-04-22T18:35:41;100593.47;;;8.38;100.00
57056;BME280;42945;51.718;5.324;2023-04-22T18:41:29;100614.63;;;8.38;100.00
57056;BME280;42945;51.718;5.324;2023-04-22T18:47:17;100633.59;;;8.12;100.00
57056;BME280;42945;51.718;5.324;2023-04-22T18:53:05;100635.91;;;8.00;100.00
57056;BME280;42945;51.718;5.324;2023-04-22T18:58:54;100589.72;;;7.92;100.00
57056;BME280;42945;51.718;5.324;2023-04-22T19:04:43;100678.66;;;8.08;100.00
57056;BME280;42945;51.718;5.324;2023-04-22T19:10:31;100737.22;;;8.53;100.00
57056;BME280;42945;51.718;5.324;2023-04-22T19:16:20;100675.38;;;7.86;100.00
57056;BME280;42945;51.718;5.324;2023-04-22T19:26:02;100666.81;;;7.44;100.00
57056;BME280;42945;51.718;5.324;2023-04-22T19:31:51;100677.72;;;7.37;100.00
57056;BME280;42945;51.718;5.324;2023-04-22T19:37:38;100666.09;;;7.22;100.00
57056;BME280;42945;51.718;5.324;2023-04-22T19:43:26;100561.19;;;6.53;100.00
57056;BME280;42945;51.718;5.324;2023-04-22T19:49:16;100687.84;;;7.08;100.00
57056;BME280;42945;51.718;5.324;2023-04-22T19:55:05;100577.03;;;6.32;100.00
57056;BME280;42945;51.718;5.324;2023-04-22T20:00:56;100655.44;;;6.85;100.00
57056;BME280;42945;51.718;5.324;2023-04-22T20:06:45;100558.16;;;6.22;100.00
57056;BME280;42945;51.718;5.324;2023-04-22T20:12:36;100678.94;;;6.71;100.00
57056;BME280;42945;51.718;5.324;2023-04-22T20:18:25;100697.63;;;6.85;100.00
57056;BME280;42945;51.718;5.324;2023-04-22T20:28:10;100547.75;;;5.99;100.00
57056;BME280;42945;51.718;5.324;2023-04-22T20:33:59;100705.91;;;6.57;100.00
57056;BME280;42945;51.718;5.324;2023-04-22T20:39:48;100594.16;;;5.79;100.00
57056;BME280;42945;51.718;5.324;2023-04-22T20:45:36;100676.69;;;6.41;100.00
57056;BME280;42945;51.718;5.324;2023-04-22T20:51:25;100443.72;;;5.08;100.00
57056;BME280;42945;51.718;5.324;2023-04-22T20:57:14;100690.28;;;6.32;100.00
57056;BME280;42945;51.718;5.324;2023-04-22T21:03:06;100648.78;;;6.37;100.00
57056;BME280;42945;51.718;5.324;2023-04-22T21:08:58;100914.47;;;7.73;100.00
57056;BME280;42945;51.718;5.324;2023-04-22T21:14:47;100775.13;;;6.81;100.00
57056;BME280;42945;51.718;5.324;2023-04-22T21:20:44;100662.66;;;6.20;100.00
57056;BME280;42945;51.718;5.324;2023-04-22T21:30:32;100650.78;;;6.32;100.00
57056;BME280;42945;51.718;5.324;2023-04-22T21:36:20;100690.19;;;6.34;100.00
57056;BME280;42945;51.718;5.324;2023-04-22T21:42:08;100710.81;;;6.44;100.00
57056;BME280;42945;51.718;5.324;2023-04-22T21:47:57;100671.44;;;6.41;100.00
57056;BME280;42945;51.718;5.324;2023-04-22T21:53:47;100674.06;;;6.41;100.00
57056;BME280;42945;51.718;5.324;2023-04-22T21:59:36;100552.53;;;5.68;100.00
57056;BME280;42945;51.718;5.324;2023-04-22T22:05:25;100736.56;;;6.99;100.00
57056;BME280;42945;51.718;5.324;2023-04-22T22:11:14;100565.63;;;5.70;100.00
57056;BME280;42945;51.718;5.324;2023-04-22T22:17:01;100576.38;;;5.64;100.00
57056;BME280;42945;51.718;5.324;2023-04-22T22:22:49;100702.31;;;6.38;100.00
57056;BME280;42945;51.718;5.324;2023-04-22T22:32:30;100593.16;;;5.61;100.00
57056;BME280;42945;51.718;5.324;2023-04-22T22:38:18;100732.66;;;6.26;100.00
57056;BME280;42945;51.718;5.324;2023-04-22T22:44:05;100705.16;;;6.33;100.00
57056;BME280;42945;51.718;5.324;2023-04-22T22:49:53;100671.25;;;6.25;100.00
57056;BME280;42945;51.718;5.324;2023-04-22T22:55:40;100727.38;;;6.26;100.00
57056;BME280;42945;51.718;5.324;2023-04-22T23:01:29;100770.72;;;6.82;100.00
57056;BME280;42945;51.718;5.324;2023-04-22T23:07:16;100801.22;;;6.87;100.00
57056;BME280;42945;51.718;5.324;2023-04-22T23:13:04;100695.72;;;6.27;100.00
57056;BME280;42945;51.718;5.324;2023-04-22T23:18:54;100681.56;;;6.30;100.00
57056;BME280;42945;51.718;5.324;2023-04-22T23:24:43;100703.84;;;6.23;100.00
57056;BME280;42945;51.718;5.324;2023-04-22T23:34:07;100671.88;;;6.10;100.00
57056;BME280;42945;51.718;5.324;2023-04-22T23:39:55;100627.06;;;6.11;100.00
57056;BME280;42945;51.718;5.324;2023-04-22T23:45:42;100707.28;;;6.03;100.00
57056;BME280;42945;51.718;5.324;2023-04-22T23:51:30;100653.25;;;5.92;100.00
57056;BME280;42945;51.718;5.324;2023-04-22T23:57:18;100687.19;;;6.00;100.00
